Time;durP1;ratioP1;P1;durP2;ratioP2;P2;SDS_P1;SDS_P2;PMS_P1;PMS_P2;Temp;Humidity;BMP_temperature;BMP_pressure;BME280_temperature;BME280_humidity;BME280_pressure;Samples;Min_cycle;Max_cycle;Signal;HPM_P1;HPM_P2
2024/01/26 00:01:13;;;;;;;0.70;0.60;;;11.40;99.90;;;;;;6347219;22;20010;-89
2024/01/26 00:03:39;;;;;;;0.60;0.60;;;11.30;99.90;;;;;;6321487;22;20017;-89
2024/01/26 00:06:05;;;;;;;0.70;0.70;;;11.40;99.90;;;;;;6346907;22;19999;-89
2024/01/26 00:08:36;;;;;;;0.63;0.63;;;11.30;99.90;;;;;;6320663;22;20006;-91
2024/01/26 00:11:13;;;;;;;0.50;0.50;;;11.30;99.90;;;;;;6346766;22;20002;-89
2024/01/26 00:13:39;;;;;;;0.40;0.40;;;11.30;99.90;;;;;;6319962;22;20017;-89
2024/01/26 00:16:05;;;;;;;0.43;0.40;;;11.30;99.90;;;;;;6346591;22;20003;-89
2024/01/26 00:18:32;;;;;;;0.60;0.50;;;11.30;99.90;;;;;;6374628;22;20033;-90
2024/01/26 00:20:59;;;;;;;0.63;0.43;;;11.30;99.90;;;;;;6321019;22;20007;-89
2024/01/26 00:23:29;;;;;;;0.50;0.50;;;11.20;99.90;;;;;;6346473;22;20041;-90
2024/01/26 00:25:57;;;;;;;0.40;0.40;;;11.20;99.90;;;;;;6347226;22;20029;-89
2024/01/26 00:28:25;;;;;;;0.68;0.40;;;11.30;99.90;;;;;;6346882;22;19998;-90
2024/01/26 00:30:52;;;;;;;0.40;0.38;;;11.30;99.90;;;;;;6346955;22;20330;-89
2024/01/26 00:33:21;;;;;;;0.47;0.45;;;11.30;99.90;;;;;;6345856;22;20013;-89
2024/01/26 00:35:46;;;;;;;0.30;0.30;;;11.30;99.90;;;;;;6345907;22;20093;-89
2024/01/26 00:38:14;;;;;;;0.43;0.40;;;11.30;99.90;;;;;;6346425;22;20010;-89
2024/01/26 00:40:40;;;;;;;0.32;0.32;;;11.30;99.90;;;;;;6346129;22;20318;-89
2024/01/26 00:43:06;;;;;;;0.75;0.60;;;11.30;99.90;;;;;;6346436;22;20010;-90
2024/01/26 00:45:31;;;;;;;0.60;0.43;;;11.30;99.90;;;;;;6346652;22;19994;-88
2024/01/26 00:47:57;;;;;;;1.25;0.68;;;11.30;99.90;;;;;;6345976;22;20037;-89
2024/01/26 00:50:23;;;;;;;0.50;0.50;;;11.30;99.90;;;;;;6346295;22;20010;-91
2024/01/26 00:52:49;;;;;;;0.50;0.50;;;11.30;99.90;;;;;;6374129;22;20002;-90
2024/01/26 00:55:14;;;;;;;0.20;0.20;;;11.30;99.90;;;;;;6346204;22;20061;-90
2024/01/26 00:57:40;;;;;;;0.50;0.32;;;11.40;99.90;;;;;;6345902;22;20015;-90
2024/01/26 01:00:07;;;;;;;0.80;0.30;;;11.40;99.90;;;;;;6346354;22;20002;-90
2024/01/26 01:02:33;;;;;;;0.60;0.40;;;11.40;99.90;;;;;;6346545;22;20010;-90
2024/01/26 01:05:00;;;;;;;0.40;0.30;;;11.40;99.90;;;;;;6346360;22;20010;-92
2024/01/26 01:07:26;;;;;;;1.20;0.35;;;11.40;99.90;;;;;;6347306;22;20011;-91
2024/01/26 01:09:52;;;;;;;0.32;0.30;;;11.40;99.90;;;;;;6346607;22;20437;-90
2024/01/26 01:12:18;;;;;;;0.60;0.25;;;11.40;99.90;;;;;;6346389;22;20041;-91
2024/01/26 01:14:44;;;;;;;0.30;0.30;;;11.40;99.90;;;;;;6346474;22;20009;-91
2024/01/26 01:17:11;;;;;;;1.38;0.40;;;11.40;99.90;;;;;;6346507;22;20408;-91
2024/01/26 01:19:37;;;;;;;1.20;0.30;;;11.40;99.90;;;;;;6347009;22;20002;-91
2024/01/26 01:22:03;;;;;;;1.20;0.28;;;11.40;99.90;;;;;;6345693;22;20006;-90
2024/01/26 01:24:30;;;;;;;1.85;0.68;;;11.40;99.90;;;;;;6374322;22;20398;-90
2024/01/26 01:26:55;;;;;;;0.28;0.20;;;11.40;99.90;;;;;;6346189;22;20013;-91
2024/01/26 01:29:21;;;;;;;0.80;0.50;;;11.30;99.90;;;;;;6345914;22;20409;-91
2024/01/26 01:31:47;;;;;;;2.70;0.50;;;11.30;99.90;;;;;;6346514;22;19999;-91
2024/01/26 01:34:12;;;;;;;0.45;0.30;;;11.30;99.90;;;;;;6346691;22;20319;-91
2024/01/26 01:36:39;;;;;;;2.92;0.35;;;11.20;99.90;;;;;;6347658;22;19999;-93
2024/01/26 01:39:04;;;;;;;1.42;0.40;;;11.20;99.90;;;;;;6346235;22;20424;-91
2024/01/26 01:41:30;;;;;;;1.63;0.28;;;11.20;99.90;;;;;;6346018;22;19998;-92
2024/01/26 01:43:56;;;;;;;4.07;1.10;;;11.20;99.90;;;;;;6346934;22;20018;-91
2024/01/26 01:46:22;;;;;;;7.78;1.52;;;11.20;99.90;;;;;;6373357;22;20002;-91
2024/01/26 01:48:49;;;;;;;3.85;0.70;;;11.10;99.90;;;;;;6345702;22;20003;-90
2024/01/26 01:51:15;;;;;;;4.13;0.70;;;11.10;99.90;;;;;;6345659;22;19998;-90
2024/01/26 01:53:41;;;;;;;6.55;0.73;;;11.10;99.90;;;;;;6345873;22;20029;-93
2024/01/26 01:56:11;;;;;;;9.27;1.38;;;11.10;99.90;;;;;;6346888;22;20003;-91
2024/01/26 01:58:40;;;;;;;4.13;0.88;;;11.00;99.90;;;;;;6345749;22;20022;-92
2024/01/26 02:01:05;;;;;;;5.38;0.73;;;11.00;99.90;;;;;;6345967;22;20002;-92
2024/01/26 02:03:31;;;;;;;3.78;0.80;;;11.00;99.90;;;;;;6345487;22;20480;-92
2024/01/26 02:05:57;;;;;;;3.78;0.98;;;10.90;99.90;;;;;;6345327;22;20005;-92
2024/01/26 02:08:23;;;;;;;3.92;0.60;;;10.90;99.90;;;;;;6345718;22;20067;-92
2024/01/26 02:10:49;;;;;;;7.50;1.50;;;10.90;99.90;;;;;;6345762;22;19998;-92
2024/01/26 02:13:15;;;;;;;7.10;0.73;;;10.90;99.90;;;;;;6345702;22;20410;-93
2024/01/26 02:15:41;;;;;;;3.72;0.60;;;11.00;99.90;;;;;;6346065;22;20003;-92
2024/01/26 02:18:07;;;;;;;2.92;1.15;;;10.90;99.90;;;;;;6346086;22;20034;-92
2024/01/26 02:20:32;;;;;;;2.42;1.10;;;11.00;99.90;;;;;;6345087;22;20005;-93
2024/01/26 02:22:58;;;;;;;3.15;0.52;;;11.00;99.90;;;;;;6345400;22;20017;-93
2024/01/26 02:25:24;;;;;;;2.60;0.60;;;11.00;99.90;;;;;;6345841;22;20012;-92
2024/01/26 02:27:53;;;;;;;4.63;1.35;;;11.00;99.90;;;;;;6345949;22;20006;-91
2024/01/26 02:30:19;;;;;;;4.18;0.63;;;11.00;99.90;;;;;;6350692;22;20013;-92
2024/01/26 02:32:46;;;;;;;4.22;0.70;;;11.00;99.90;;;;;;6352157;22;20011;-91
2024/01/26 02:35:12;;;;;;;1.33;0.32;;;11.00;99.90;;;;;;6359846;22;20442;-93
2024/01/26 02:37:37;;;;;;;3.30;0.52;;;11.00;99.90;;;;;;6356142;22;19998;-90
2024/01/26 02:40:04;;;;;;;2.58;0.40;;;11.00;99.90;;;;;;6345562;22;20417;-92
2024/01/26 02:42:29;;;;;;;1.85;0.52;;;11.00;99.90;;;;;;6345162;22;20441;-92
2024/01/26 02:44:55;;;;;;;1.48;0.93;;;11.00;99.90;;;;;;6344808;22;20087;-93
2024/01/26 02:47:21;;;;;;;4.97;0.70;;;11.00;99.90;;;;;;6345069;22;19998;-92
2024/01/26 02:49:46;;;;;;;0.95;0.22;;;11.00;99.90;;;;;;6345090;22;20002;-92
2024/01/26 02:52:12;;;;;;;0.70;0.20;;;11.00;99.90;;;;;;6344998;22;20056;-91
2024/01/26 02:54:38;;;;;;;4.13;0.75;;;11.10;99.90;;;;;;6345262;22;20386;-91
2024/01/26 02:57:04;;;;;;;4.45;0.60;;;11.10;99.90;;;;;;6345501;22;20014;-92
2024/01/26 02:59:29;;;;;;;2.03;0.40;;;11.10;99.90;;;;;;6345396;22;20073;-90
2024/01/26 03:01:55;;;;;;;6.70;1.20;;;11.00;99.90;;;;;;6345349;22;20011;-91
2024/01/26 03:04:21;;;;;;;4.13;0.80;;;11.00;99.90;;;;;;6345177;22;20007;-89
2024/01/26 03:06:47;;;;;;;4.22;0.88;;;11.00;99.90;;;;;;6345711;22;20352;-89
2024/01/26 03:09:14;;;;;;;8.48;0.85;;;11.00;99.90;;;;;;6344968;22;20002;-90
2024/01/26 03:11:44;;;;;;;4.20;0.45;;;10.90;99.90;;;;;;6345037;22;20005;-90
2024/01/26 03:14:10;;;;;;;7.72;1.38;;;10.90;99.90;;;;;;6345296;22;20007;-90
2024/01/26 03:16:39;;;;;;;4.57;1.00;;;10.90;99.90;;;;;;6345110;22;20007;-89
2024/01/26 03:19:05;;;;;;;11.88;1.05;;;10.90;99.90;;;;;;6352478;22;20032;-91
2024/01/26 03:21:31;;;;;;;6.38;1.30;;;10.80;99.90;;;;;;6358773;22;20003;-90
2024/01/26 03:24:02;;;;;;;6.15;1.13;;;10.80;99.90;;;;;;6356934;22;20010;-91
2024/01/26 03:30:22;;;;;;;2.85;0.30;;;10.70;99.90;;;;;;6307968;22;20022;-91
2024/01/26 03:36:34;;;;;;;1.08;0.38;;;9.60;99.90;;;;;;6307745;22;20136;-90
2024/01/26 03:39:00;;;;;;;1.98;0.50;;;9.10;99.90;;;;;;6282254;22;20110;-92
2024/01/26 03:41:26;;;;;;;4.80;0.88;;;8.80;99.90;;;;;;6282833;22;20066;-91
2024/01/26 03:43:52;;;;;;;2.88;0.38;;;8.60;99.90;;;;;;6281837;22;20045;-93
2024/01/26 03:46:19;;;;;;;9.15;1.35;;;8.40;99.90;;;;;;6281900;22;20082;-92
2024/01/26 03:48:44;;;;;;;8.13;0.82;;;8.30;99.90;;;;;;6281425;22;20007;-92
2024/01/26 03:51:11;;;;;;;11.02;0.68;;;8.20;99.90;;;;;;6280941;22;20435;-92
2024/01/26 03:53:36;;;;;;;5.43;0.90;;;8.10;99.90;;;;;;6281075;22;20094;-91
2024/01/26 03:56:02;;;;;;;6.13;1.00;;;8.00;99.90;;;;;;6281505;22;20057;-94
2024/01/26 03:58:29;;;;;;;7.05;1.40;;;8.00;99.90;;;;;;6281432;22;20017;-91
2024/01/26 04:00:55;;;;;;;10.80;1.10;;;8.00;99.90;;;;;;6330260;22;20037;-91
2024/01/26 04:03:21;;;;;;;6.18;1.17;;;7.90;99.90;;;;;;6344224;22;20015;-92
2024/01/26 04:05:47;;;;;;;2.90;0.90;;;7.90;99.90;;;;;;6345037;22;20084;-93
2024/01/26 04:08:14;;;;;;;7.95;1.10;;;7.90;99.90;;;;;;6345181;22;20011;-93
2024/01/26 04:10:40;;;;;;;5.50;0.73;;;7.90;99.90;;;;;;6345301;22;20002;-92
2024/01/26 04:13:06;;;;;;;5.78;1.58;;;7.80;99.90;;;;;;6320161;22;20002;-92
2024/01/26 04:15:35;;;;;;;4.20;0.95;;;7.80;99.90;;;;;;6373787;22;20069;-91
2024/01/26 04:21:10;;;;;;;8.20;0.77;;;7.70;99.90;;;;;;6376022;22;20031;-90
2024/01/26 04:23:37;;;;;;;6.28;0.73;;;7.70;99.90;;;;;;6374928;22;20002;-93
2024/01/26 04:26:05;;;;;;;7.93;1.42;;;7.60;99.90;;;;;;6347664;22;20449;-91
2024/01/26 04:28:31;;;;;;;10.00;1.73;;;7.50;99.90;;;;;;6321156;22;20062;-93
2024/01/26 04:30:57;;;;;;;3.00;0.70;;;7.50;99.90;;;;;;6347318;22;20018;-92
2024/01/26 04:33:23;;;;;;;7.15;1.25;;;7.40;99.90;;;;;;6348289;22;20002;-92
2024/01/26 04:35:48;;;;;;;8.35;1.02;;;7.30;99.90;;;;;;6347839;22;20009;-91
2024/01/26 04:38:14;;;;;;;5.18;0.93;;;7.30;99.90;;;;;;6347691;22;20003;-93
2024/01/26 04:40:40;;;;;;;17.95;3.75;;;7.30;99.90;;;;;;6347692;22;20307;-94
2024/01/26 04:43:06;;;;;;;15.32;2.20;;;7.20;99.90;;;;;;6347120;22;19999;-93
2024/01/26 04:45:32;;;;;;;5.63;0.77;;;7.20;99.90;;;;;;6345377;22;20010;-93
2024/01/26 04:47:58;;;;;;;8.65;1.30;;;7.10;99.90;;;;;;6346087;22;20482;-92
2024/01/26 04:50:27;;;;;;;8.15;0.95;;;7.10;99.90;;;;;;6347139;22;20430;-92
2024/01/26 04:52:54;;;;;;;9.50;1.52;;;7.10;99.90;;;;;;6345837;22;20006;-92
2024/01/26 04:55:28;;;;;;;5.32;1.20;;;7.10;99.90;;;;;;6319618;22;20006;-93
2024/01/26 04:57:53;;;;;;;7.97;1.05;;;7.10;99.90;;;;;;6345447;22;20153;-92
2024/01/26 05:00:25;;;;;;;10.77;1.58;;;7.10;99.90;;;;;;6345651;22;20002;-89
2024/01/26 05:02:51;;;;;;;7.28;1.23;;;7.00;99.90;;;;;;6345218;22;20062;-90
2024/01/26 05:05:17;;;;;;;6.38;1.27;;;7.00;99.90;;;;;;6345264;22;20002;-91
2024/01/26 05:07:43;;;;;;;2.50;1.08;;;6.90;99.90;;;;;;6345818;22;20006;-90
2024/01/26 05:10:11;;;;;;;6.45;0.85;;;6.90;99.90;;;;;;6345278;22;20334;-91
2024/01/26 05:12:45;;;;;;;6.40;0.80;;;6.80;99.90;;;;;;6345892;22;20007;-90
2024/01/26 05:15:11;;;;;;;4.10;0.75;;;6.80;99.90;;;;;;6346429;22;20426;-91
2024/01/26 05:17:42;;;;;;;6.07;1.02;;;6.80;99.90;;;;;;6345122;22;20002;-90
2024/01/26 05:20:09;;;;;;;9.90;1.58;;;6.80;99.90;;;;;;6321229;22;20295;-91
2024/01/26 05:22:34;;;;;;;9.48;1.25;;;6.70;99.90;;;;;;6319379;22;20097;-93
2024/01/26 05:25:04;;;;;;;5.72;0.95;;;6.70;99.90;;;;;;6346364;22;20007;-91
2024/01/26 05:27:30;;;;;;;13.10;1.42;;;6.60;99.90;;;;;;6345914;22;20086;-93
2024/01/26 05:30:00;;;;;;;8.07;1.15;;;6.60;99.90;;;;;;6345363;22;20006;-91
2024/01/26 05:32:26;;;;;;;5.25;1.15;;;6.70;99.90;;;;;;6344717;22;20434;-92
2024/01/26 05:34:53;;;;;;;4.70;1.35;;;6.60;99.90;;;;;;6373424;22;20065;-92
2024/01/26 05:37:19;;;;;;;15.02;1.65;;;6.60;99.90;;;;;;6373372;22;20026;-92
2024/01/26 05:39:45;;;;;;;8.48;1.30;;;6.50;99.90;;;;;;6372769;22;20019;-91
2024/01/26 05:42:11;;;;;;;6.47;1.65;;;6.50;99.90;;;;;;6346778;22;20034;-92
2024/01/26 05:44:41;;;;;;;6.97;1.58;;;6.50;99.90;;;;;;6319752;22;20034;-91
2024/01/26 05:47:07;;;;;;;9.13;1.33;;;6.50;99.90;;;;;;6320118;22;20006;-92
2024/01/26 05:49:33;;;;;;;11.55;1.40;;;6.40;99.90;;;;;;6345663;22;20056;-92
2024/01/26 05:51:59;;;;;;;11.30;1.40;;;6.40;99.90;;;;;;6346026;22;20431;-91
2024/01/26 05:54:26;;;;;;;12.05;1.98;;;6.40;99.90;;;;;;6345206;22;20423;-92
2024/01/26 05:56:51;;;;;;;10.90;1.60;;;6.30;99.90;;;;;;6344962;22;20018;-92
2024/01/26 06:06:12;;;;;;;15.32;3.03;;;6.10;99.90;;;;;;6338997;22;20049;-90
2024/01/26 06:08:42;;;;;;;15.45;1.40;;;6.00;99.90;;;;;;6312537;22;20007;-90
2024/01/26 06:11:10;;;;;;;14.20;1.27;;;5.90;99.90;;;;;;6339199;22;20013;-89
2024/01/26 06:13:36;;;;;;;14.15;1.67;;;5.80;99.90;;;;;;6313495;22;20057;-90
2024/01/26 06:16:03;;;;;;;13.73;1.73;;;5.70;99.90;;;;;;6312284;22;20461;-91
2024/01/26 06:18:29;;;;;;;11.00;1.58;;;5.70;99.90;;;;;;6312887;22;20007;-91
2024/01/26 06:20:54;;;;;;;12.15;1.88;;;5.60;99.90;;;;;;6311808;22;20026;-91
2024/01/26 06:24:01;;;;;;;12.68;1.92;;;5.60;99.90;;;;;;6311209;22;20501;-90
2024/01/26 06:26:40;;;;;;;16.05;2.30;;;5.60;99.90;;;;;;6334973;22;20114;-91
2024/01/26 06:29:07;;;;;;;20.77;1.95;;;5.60;99.90;;;;;;6312095;22;20049;-91
2024/01/26 06:31:47;;;;;;;12.15;2.25;;;5.70;99.90;;;;;;6310335;22;20007;-93
2024/01/26 06:34:40;;;;;;;13.10;2.28;;;5.70;99.90;;;;;;6313929;22;20026;-91
2024/01/26 06:37:18;;;;;;;21.95;3.70;;;5.70;99.90;;;;;;6329499;22;20006;-91
2024/01/26 06:40:12;;;;;;;15.65;2.30;;;5.60;99.90;;;;;;6334764;22;19999;-91
2024/01/26 06:42:43;;;;;;;6.72;1.50;;;5.60;99.90;;;;;;6311974;22;20032;-91
2024/01/26 06:45:14;;;;;;;13.57;1.33;;;5.60;99.90;;;;;;6312332;22;20087;-92
2024/01/26 06:48:15;;;;;;;19.88;2.25;;;5.50;99.90;;;;;;6346022;22;20440;-92
2024/01/26 06:50:42;;;;;;;17.67;1.42;;;5.50;99.90;;;;;;6344751;22;20022;-92
2024/01/26 06:53:14;;;;;;;17.48;1.92;;;5.40;99.90;;;;;;6344714;22;20002;-92
2024/01/26 06:55:45;;;;;;;11.93;1.80;;;5.40;99.90;;;;;;6344682;22;20010;-92
2024/01/26 06:58:17;;;;;;;15.15;1.95;;;5.30;99.90;;;;;;6339683;22;20097;-92
2024/01/26 07:00:48;;;;;;;12.65;1.80;;;5.30;99.90;;;;;;6339318;22;20444;-92
2024/01/26 07:03:14;;;;;;;11.48;1.27;;;5.20;99.90;;;;;;6338938;22;20109;-92
2024/01/26 07:05:39;;;;;;;9.45;1.67;;;5.20;99.90;;;;;;6340044;22;19999;-94
2024/01/26 07:08:06;;;;;;;8.05;1.70;;;5.20;99.90;;;;;;6340802;22;20006;-93
2024/01/26 07:10:31;;;;;;;21.73;1.85;;;5.20;99.90;;;;;;6338904;22;20077;-91
2024/01/26 07:12:57;;;;;;;14.40;1.90;;;5.20;99.90;;;;;;6338953;22;20029;-92
2024/01/26 07:15:23;;;;;;;20.30;2.47;;;5.20;99.90;;;;;;6339913;22;20039;-91
2024/01/26 07:17:50;;;;;;;16.27;2.17;;;5.20;99.90;;;;;;6340161;22;20014;-91
2024/01/26 07:20:16;;;;;;;11.00;1.90;;;5.20;99.90;;;;;;6341304;22;20094;-90
2024/01/26 07:22:42;;;;;;;17.20;1.90;;;5.20;99.90;;;;;;6340429;22;20014;-90
2024/01/26 07:25:12;;;;;;;11.85;1.42;;;5.20;99.90;;;;;;6339567;22;20050;-91
2024/01/26 07:27:38;;;;;;;9.40;3.17;;;5.20;99.90;;;;;;6342217;22;19998;-91
2024/01/26 07:30:08;;;;;;;9.73;1.52;;;5.20;99.90;;;;;;6344921;22;20007;-92
2024/01/26 07:32:34;;;;;;;12.25;1.73;;;5.20;99.90;;;;;;6343417;22;20028;-91
2024/01/26 07:34:59;;;;;;;11.63;1.83;;;5.20;99.90;;;;;;6342553;22;20007;-91
2024/01/26 07:37:25;;;;;;;12.90;1.75;;;5.20;99.90;;;;;;6342171;22;20298;-91
2024/01/26 07:39:52;;;;;;;18.75;2.40;;;5.20;99.90;;;;;;6339981;22;20003;-91
2024/01/26 07:42:18;;;;;;;11.18;1.55;;;5.20;99.90;;;;;;6338309;22;20011;-91
2024/01/26 07:44:44;;;;;;;21.02;2.28;;;5.10;99.90;;;;;;6340416;22;20035;-91
2024/01/26 07:47:12;;;;;;;15.55;2.17;;;5.10;99.90;;;;;;6341278;22;20006;-92
2024/01/26 07:49:38;;;;;;;17.20;2.30;;;5.10;99.90;;;;;;6340477;22;20014;-91
2024/01/26 07:52:06;;;;;;;12.50;2.20;;;5.10;99.90;;;;;;6341928;22;20306;-92
2024/01/26 07:54:32;;;;;;;10.73;1.83;;;5.20;99.90;;;;;;6315450;22;20029;-92
2024/01/26 07:56:58;;;;;;;14.90;1.90;;;5.20;99.90;;;;;;6340191;22;20006;-91
2024/01/26 07:59:26;;;;;;;12.38;1.60;;;5.20;99.90;;;;;;6340192;22;20006;-93
2024/01/26 08:01:52;;;;;;;18.08;2.30;;;5.10;99.90;;;;;;6345240;22;20006;-92
2024/01/26 08:04:18;;;;;;;17.40;2.83;;;5.10;99.90;;;;;;6320330;22;20102;-93
2024/01/26 08:06:45;;;;;;;18.65;2.03;;;5.10;99.90;;;;;;6348590;22;20068;-92
2024/01/26 08:09:12;;;;;;;14.10;2.53;;;5.10;99.90;;;;;;6350027;22;20028;-92
2024/01/26 08:11:38;;;;;;;16.70;2.17;;;5.10;99.90;;;;;;6343947;22;19999;-92
2024/01/26 08:14:04;;;;;;;13.40;2.10;;;5.10;99.90;;;;;;6342299;22;20487;-92
2024/01/26 08:16:32;;;;;;;18.80;2.33;;;5.10;99.90;;;;;;6340775;22;20056;-92
2024/01/26 08:19:01;;;;;;;13.30;2.67;;;5.10;99.90;;;;;;6340415;22;20007;-91
2024/01/26 08:21:29;;;;;;;10.27;1.77;;;5.10;99.90;;;;;;6340468;22;20007;-92
2024/01/26 08:23:59;;;;;;;15.10;1.92;;;5.00;99.90;;;;;;6313965;22;20018;-92
2024/01/26 08:26:26;;;;;;;9.93;1.07;;;5.00;99.90;;;;;;6342945;22;20326;-92
2024/01/26 08:28:57;;;;;;;15.73;2.40;;;5.00;99.90;;;;;;6314545;22;20037;-91
2024/01/26 08:31:23;;;;;;;;;;;4.90;99.90;;;;;;6340943;22;19999;-93
2024/01/26 08:33:49;;;;;;;15.57;2.30;;;4.90;99.90;;;;;;6350316;22;19908;-92
2024/01/26 08:36:15;;;;;;;19.67;2.13;;;4.90;99.90;;;;;;6347264;22;20006;-93
2024/01/26 08:38:43;;;;;;;11.57;1.80;;;4.80;99.90;;;;;;6348913;22;20315;-92
2024/01/26 08:41:10;;;;;;;15.63;2.20;;;4.80;99.90;;;;;;6347530;22;20026;-92
2024/01/26 08:43:36;;;;;;;17.10;2.00;;;4.80;99.90;;;;;;6321467;22;20018;-92
2024/01/26 08:46:05;;;;;;;16.88;1.85;;;4.80;99.90;;;;;;6345408;22;20002;-92
2024/01/26 08:48:32;;;;;;;21.77;2.22;;;4.80;99.90;;;;;;6340577;22;20006;-91
2024/01/26 08:51:02;;;;;;;13.18;1.73;;;4.80;99.90;;;;;;6341045;22;20023;-92
2024/01/26 08:53:32;;;;;;;17.70;2.65;;;4.80;99.90;;;;;;6317427;22;20094;-92
2024/01/26 08:56:05;;;;;;;16.73;2.03;;;4.90;99.90;;;;;;6342719;22;20063;-92
2024/01/26 08:58:31;;;;;;;18.55;2.70;;;4.90;99.90;;;;;;6343703;22;20007;-92
2024/01/26 09:01:00;;;;;;;19.17;2.63;;;4.90;99.90;;;;;;6317534;22;20007;-92
2024/01/26 09:03:27;;;;;;;18.98;3.25;;;4.90;99.90;;;;;;6344241;22;20075;-93
2024/01/26 09:05:53;;;;;;;10.32;1.50;;;4.90;99.90;;;;;;6317688;22;20045;-92
2024/01/26 09:08:24;;;;;;;15.10;2.33;;;4.90;99.90;;;;;;6319816;22;20091;-92
2024/01/26 09:10:50;;;;;;;17.92;2.28;;;5.00;99.90;;;;;;6327437;22;20033;-92
2024/01/26 09:13:16;;;;;;;8.95;1.85;;;5.00;99.90;;;;;;6363927;22;19998;-91
2024/01/26 09:15:42;;;;;;;23.58;2.10;;;5.00;99.90;;;;;;6364647;22;20006;-92
2024/01/26 09:18:08;;;;;;;19.85;1.73;;;5.00;99.90;;;;;;6364616;22;20029;-92
2024/01/26 09:20:35;;;;;;;11.00;1.73;;;5.10;99.90;;;;;;6364094;22;20325;-92
2024/01/26 09:23:02;;;;;;;15.25;3.03;;;5.10;99.90;;;;;;6365641;22;20017;-93
2024/01/26 09:25:27;;;;;;;10.88;2.05;;;5.10;99.90;;;;;;6362927;22;19998;-92
2024/01/26 09:27:53;;;;;;;16.52;4.03;;;5.20;99.90;;;;;;6364248;22;20014;-90
2024/01/26 09:30:19;;;;;;;15.65;2.30;;;5.30;99.90;;;;;;6341872;22;19999;-90
2024/01/26 09:32:45;;;;;;;17.27;1.70;;;5.30;99.90;;;;;;6342607;22;20010;-90
2024/01/26 09:35:12;;;;;;;10.27;1.58;;;5.40;99.90;;;;;;6341624;22;20006;-89
2024/01/26 09:37:39;;;;;;;15.82;1.67;;;5.40;99.90;;;;;;6342258;22;20031;-90
2024/01/26 09:40:05;;;;;;;11.25;1.88;;;5.40;99.90;;;;;;6344027;22;20006;-93
2024/01/26 09:42:34;;;;;;;13.68;2.00;;;5.40;99.90;;;;;;6341736;22;20034;-91
2024/01/26 09:45:01;;;;;;;20.35;2.78;;;5.40;99.90;;;;;;6317527;22;20011;-94
2024/01/26 09:47:34;;;;;;;12.73;1.92;;;5.40;99.90;;;;;;6341971;22;20024;-93
2024/01/26 09:50:04;;;;;;;17.73;1.98;;;5.40;99.90;;;;;;6342626;22;20363;-92
2024/01/26 09:52:34;;;;;;;21.45;2.45;;;5.40;99.90;;;;;;6350014;22;20003;-92
2024/01/26 09:55:02;;;;;;;12.07;2.03;;;5.40;99.90;;;;;;6350442;22;20319;-92
2024/01/26 09:57:29;;;;;;;23.15;2.83;;;5.50;99.90;;;;;;6348091;22;20022;-92
2024/01/26 09:59:55;;;;;;;16.30;1.90;;;5.40;99.90;;;;;;6349958;22;20005;-92
2024/01/26 10:02:22;;;;;;;12.63;2.35;;;5.50;99.90;;;;;;6349249;22;19998;-92
2024/01/26 10:04:48;;;;;;;13.02;2.22;;;5.50;99.90;;;;;;6344288;22;20046;-91
2024/01/26 10:07:17;;;;;;;13.52;3.33;;;5.50;99.90;;;;;;6343770;22;19998;-91
2024/01/26 10:09:43;;;;;;;12.30;1.80;;;5.50;99.90;;;;;;6343504;22;20007;-92
2024/01/26 10:12:12;;;;;;;18.85;1.65;;;5.50;99.90;;;;;;6343371;22;20003;-91
2024/01/26 10:14:38;;;;;;;15.52;2.85;;;5.50;99.90;;;;;;6344625;22;20002;-91
2024/01/26 10:17:05;;;;;;;16.45;1.95;;;5.50;99.90;;;;;;6346718;22;20014;-92
2024/01/26 10:19:31;;;;;;;17.85;2.20;;;5.50;99.90;;;;;;6345883;22;20010;-93
2024/01/26 10:21:59;;;;;;;13.57;3.08;;;5.50;99.90;;;;;;6344521;22;20002;-92
2024/01/26 10:24:25;;;;;;;10.32;1.98;;;5.60;99.90;;;;;;6342461;22;20017;-92
2024/01/26 10:26:54;;;;;;;13.75;2.50;;;5.60;99.90;;;;;;6344196;22;19998;-91
2024/01/26 10:29:24;;;;;;;9.00;2.42;;;5.60;99.90;;;;;;6340634;22;20002;-92
2024/01/26 10:31:51;;;;;;;26.45;3.10;;;5.60;99.90;;;;;;6340271;22;20003;-91
2024/01/26 10:34:18;;;;;;;22.10;2.20;;;5.70;99.90;;;;;;6340162;22;20337;-94
2024/01/26 10:36:46;;;;;;;14.52;2.75;;;5.70;99.90;;;;;;6340666;22;20310;-90
2024/01/26 10:39:23;;;;;;;12.38;2.28;;;5.70;99.90;;;;;;6340309;22;19999;-92
2024/01/26 10:41:52;;;;;;;19.15;2.20;;;5.70;99.90;;;;;;6340407;22;20434;-91
2024/01/26 10:44:22;;;;;;;21.40;2.70;;;5.80;99.90;;;;;;6340311;22;20015;-93
2024/01/26 10:46:49;;;;;;;17.00;2.50;;;5.80;99.90;;;;;;6340672;22;19999;-91
2024/01/26 10:49:15;;;;;;;25.42;2.88;;;5.80;99.90;;;;;;6340435;22;20007;-93
2024/01/26 10:51:42;;;;;;;20.63;2.20;;;5.80;99.90;;;;;;6316546;22;20449;-92
2024/01/26 10:54:12;;;;;;;17.38;2.72;;;5.80;99.90;;;;;;6339850;22;20030;-92
2024/01/26 10:56:40;;;;;;;20.40;2.27;;;5.90;99.90;;;;;;6340169;22;19999;-92
2024/01/26 10:59:10;;;;;;;14.32;1.85;;;5.90;99.90;;;;;;6345438;22;20010;-90
2024/01/26 11:01:39;;;;;;;19.77;2.15;;;6.00;99.90;;;;;;6374222;22;20018;-91
2024/01/26 11:04:17;;;;;;;16.20;2.15;;;6.00;99.90;;;;;;6347364;22;20071;-91
2024/01/26 11:06:43;;;;;;;22.77;2.38;;;6.10;99.90;;;;;;6347472;22;20012;-92
2024/01/26 11:09:12;;;;;;;10.68;2.17;;;6.10;99.90;;;;;;6346205;22;20006;-91
2024/01/26 11:11:38;;;;;;;17.40;2.72;;;6.20;99.90;;;;;;6345567;22;19998;-94
2024/01/26 11:14:07;;;;;;;16.83;2.08;;;6.20;99.90;;;;;;6344958;22;20425;-93
2024/01/26 11:16:35;;;;;;;11.40;1.67;;;6.30;99.90;;;;;;6344636;22;19998;-92
2024/01/26 11:19:02;;;;;;;10.20;1.67;;;6.30;99.90;;;;;;6345593;22;20340;-92
2024/01/26 11:21:43;;;;;;;11.15;1.40;;;6.30;99.90;;;;;;6372518;22;20014;-91
2024/01/26 11:24:19;;;;;;;21.02;2.67;;;6.30;99.90;;;;;;6344513;22;20112;-92
2024/01/26 11:26:56;;;;;;;5.88;1.17;;;6.40;99.90;;;;;;6344253;22;20538;-92
2024/01/26 11:29:22;;;;;;;17.92;3.03;;;6.50;99.90;;;;;;6345794;22;20006;-92
2024/01/26 11:31:49;;;;;;;4.50;1.65;;;6.60;99.90;;;;;;6344540;22;20006;-92
2024/01/26 11:34:23;;;;;;;10.20;1.48;;;6.80;99.90;;;;;;6345043;22;19998;-92
2024/01/26 11:37:14;;;;;;;28.95;3.67;;;6.90;99.90;;;;;;6372849;22;20006;-93
2024/01/26 11:39:41;;;;;;;12.47;1.73;;;7.00;99.90;;;;;;6344765;22;20013;-92
2024/01/26 11:42:11;;;;;;;10.32;1.70;;;7.00;99.90;;;;;;6344669;22;20003;-92
2024/01/26 11:44:41;;;;;;;12.35;2.05;;;7.00;99.90;;;;;;6344861;22;20006;-92
2024/01/26 11:47:09;;;;;;;14.90;2.20;;;7.00;99.90;;;;;;6347292;22;20009;-91
2024/01/26 11:49:36;;;;;;;17.85;2.90;;;6.90;99.90;;;;;;6344558;22;20006;-93
2024/01/26 11:52:03;;;;;;;13.63;1.88;;;6.90;99.90;;;;;;6344792;22;20425;-93
2024/01/26 11:54:31;;;;;;;19.90;2.95;;;6.80;99.90;;;;;;6346956;22;20010;-92
2024/01/26 11:56:57;;;;;;;15.73;2.63;;;6.80;99.90;;;;;;6346409;22;20018;-92
2024/01/26 11:59:29;;;;;;;14.90;1.87;;;6.80;99.90;;;;;;6372833;22;20009;-92
2024/01/26 12:01:55;;;;;;;17.13;2.20;;;6.80;99.90;;;;;;6344512;22;20010;-92
2024/01/26 12:04:22;;;;;;;14.13;2.67;;;6.80;99.90;;;;;;6344335;22;20038;-92
2024/01/26 12:06:48;;;;;;;14.90;2.17;;;6.80;99.90;;;;;;6344669;22;20418;-92
2024/01/26 12:09:14;;;;;;;22.00;3.45;;;6.80;99.90;;;;;;6344986;22;20002;-93
2024/01/26 12:11:40;;;;;;;15.75;2.40;;;6.90;99.90;;;;;;6344616;22;20005;-92
2024/01/26 12:14:06;;;;;;;20.58;2.58;;;7.00;99.90;;;;;;6346961;22;20017;-92
2024/01/26 12:16:33;;;;;;;20.55;2.58;;;7.10;99.90;;;;;;6344332;22;20003;-92
2024/01/26 12:19:02;;;;;;;10.18;2.40;;;7.20;99.90;;;;;;6345410;22;20010;-90
2024/01/26 12:21:29;;;;;;;12.23;1.50;;;7.30;99.90;;;;;;6344739;22;20002;-90
2024/01/26 12:23:54;;;;;;;15.82;1.92;;;7.40;99.90;;;;;;6347822;22;20010;-93
2024/01/26 12:26:20;;;;;;;16.92;2.55;;;7.60;99.90;;;;;;6345242;22;20012;-91
2024/01/26 12:28:48;;;;;;;15.90;2.53;;;7.80;99.90;;;;;;6344388;22;20010;-92
2024/01/26 12:31:16;;;;;;;11.10;1.73;;;8.00;99.90;;;;;;6345944;22;20002;-92
2024/01/26 12:33:46;;;;;;;11.30;1.98;;;8.30;99.10;;;;;;6346455;22;20006;-92
2024/01/26 12:36:13;;;;;;;8.88;1.50;;;8.40;98.30;;;;;;6346663;22;20451;-92
2024/01/26 12:38:39;;;;;;;15.50;2.35;;;8.50;97.80;;;;;;6345672;22;20009;-92
2024/01/26 12:41:08;;;;;;;15.65;2.30;;;8.70;97.70;;;;;;6345849;22;20326;-92
2024/01/26 12:43:34;;;;;;;17.85;2.20;;;8.80;96.70;;;;;;6345705;22;20013;-92
2024/01/26 12:46:05;;;;;;;17.60;2.45;;;8.90;96.00;;;;;;6347298;22;20390;-92
2024/01/26 12:48:30;;;;;;;12.32;1.98;;;9.00;95.30;;;;;;6321070;22;20007;-93
2024/01/26 12:51:00;;;;;;;14.10;2.72;;;9.00;95.00;;;;;;6345864;22;20519;-92
2024/01/26 12:53:26;;;;;;;11.40;2.10;;;9.00;94.60;;;;;;6345498;22;20460;-91
2024/01/26 12:55:52;;;;;;;19.75;2.38;;;8.90;93.50;;;;;;6345466;22;20011;-91
2024/01/26 12:58:18;;;;;;;12.73;1.48;;;8.90;93.10;;;;;;6345190;22;20010;-91
2024/01/26 13:00:43;;;;;;;17.73;2.72;;;8.90;92.80;;;;;;6344903;22;20006;-92
2024/01/26 13:03:09;;;;;;;15.10;2.78;;;9.10;92.90;;;;;;6346213;22;20009;-92
2024/01/26 13:05:35;;;;;;;17.27;2.50;;;9.40;93.00;;;;;;6347032;22;20027;-91
2024/01/26 13:08:01;;;;;;;14.50;2.20;;;9.70;92.90;;;;;;6346309;22;20006;-92